Time;durP1;ratioP1;P1;durP2;ratioP2;P2;SDS_P1;SDS_P2;PMS_P1;PMS_P2;Temp;Humidity;BMP_temperature;BMP_pressure;BME280_temperature;BME280_humidity;BME280_pressure;Samples;Min_cycle;Max_cycle;Signal;HPM_P1;HPM_P2
2022/11/10 00:00:30;;;;;;;6.97;1.55;;;11.70;99.90;;;;;;4796210;29;20140;-85
2022/11/10 00:03:01;;;;;;;8.68;1.85;;;11.70;99.90;;;;;;4795168;29;20964;-85
2022/11/10 00:05:28;;;;;;;7.63;1.70;;;11.80;99.90;;;;;;4797634;29;20061;-85
2022/11/10 00:07:54;;;;;;;12.38;2.03;;;11.70;99.90;;;;;;4799024;29;20111;-84
2022/11/10 00:10:27;;;;;;;10.10;1.77;;;11.70;99.90;;;;;;4782433;29;20176;-86
2022/11/10 00:12:57;;;;;;;12.57;2.47;;;11.70;99.90;;;;;;4797552;29;20572;-85
2022/11/10 00:18:10;;;;;;;11.50;2.10;;;11.60;99.90;;;;;;4813165;29;20046;-85
2022/11/10 00:20:36;;;;;;;8.95;1.92;;;10.60;99.90;;;;;;4796673;29;20062;-86
2022/11/10 00:23:02;;;;;;;11.18;2.25;;;11.70;99.90;;;;;;4785644;29;20115;-85
2022/11/10 00:25:31;;;;;;;12.55;2.00;;;11.80;99.90;;;;;;4800614;29;20088;-84
2022/11/10 00:27:58;;;;;;;10.35;1.95;;;11.70;99.90;;;;;;4814964;29;20465;-84
2022/11/10 00:30:25;;;;;;;8.32;1.95;;;11.70;99.90;;;;;;4801988;29;20053;-84
2022/11/10 00:32:51;;;;;;;8.55;1.60;;;11.60;99.90;;;;;;4815687;29;20124;-84
2022/11/10 00:35:17;;;;;;;6.93;1.35;;;11.70;99.90;;;;;;4812607;29;20484;-84
2022/11/10 00:37:42;;;;;;;9.90;1.90;;;11.30;99.90;;;;;;4799306;29;20054;-84
2022/11/10 00:40:09;;;;;;;9.00;1.88;;;11.70;99.90;;;;;;4813619;29;20050;-85
2022/11/10 00:42:35;;;;;;;9.35;1.95;;;11.70;99.90;;;;;;4816583;29;20169;-85
2022/11/10 00:45:00;;;;;;;10.93;2.33;;;11.60;99.90;;;;;;4787660;29;20177;-85
2022/11/10 00:47:26;;;;;;;12.50;1.98;;;11.10;99.90;;;;;;4799966;29;20141;-85
2022/11/10 00:49:52;;;;;;;9.20;2.15;;;11.70;99.90;;;;;;4800185;29;20420;-84
2022/11/10 00:52:18;;;;;;;8.50;1.80;;;11.70;99.90;;;;;;4787276;29;20548;-84
2022/11/10 00:54:44;;;;;;;9.65;1.90;;;11.70;99.90;;;;;;4798213;29;20049;-84
2022/11/10 00:57:10;;;;;;;8.57;2.28;;;11.70;99.90;;;;;;4785223;29;20057;-84
2022/11/10 00:59:36;;;;;;;9.98;1.73;;;11.80;99.90;;;;;;4812482;29;20046;-85
2022/11/10 01:02:01;;;;;;;7.20;1.60;;;11.70;99.90;;;;;;4773523;29;20121;-85
2022/11/10 01:04:27;;;;;;;8.82;2.13;;;11.70;99.90;;;;;;4800410;29;20101;-85
2022/11/10 01:06:53;;;;;;;10.82;2.67;;;11.60;99.90;;;;;;4785714;29;20668;-84
2022/11/10 01:09:19;;;;;;;10.52;2.10;;;11.70;99.90;;;;;;4813473;29;20242;-84
2022/11/10 01:11:45;;;;;;;7.70;2.05;;;11.70;99.90;;;;;;4814827;29;20133;-85
2022/11/10 01:14:11;;;;;;;14.27;2.38;;;11.80;99.90;;;;;;4786607;29;20046;-84
2022/11/10 01:16:36;;;;;;;10.88;2.15;;;11.70;99.90;;;;;;4797761;29;20062;-85
2022/11/10 01:19:02;;;;;;;11.85;2.88;;;11.40;99.90;;;;;;4809368;29;20515;-85
2022/11/10 01:21:29;;;;;;;10.15;1.98;;;11.70;99.90;;;;;;4797381;29;20133;-85
2022/11/10 01:23:58;;;;;;;12.27;2.63;;;11.60;99.90;;;;;;4809899;29;20173;-85
2022/11/10 01:26:24;;;;;;;10.82;2.30;;;11.70;99.90;;;;;;4794585;29;20142;-85
2022/11/10 01:28:50;;;;;;;12.05;2.03;;;11.60;99.90;;;;;;4793755;29;20058;-85
2022/11/10 01:31:19;;;;;;;11.68;2.45;;;12.80;99.90;;;;;;4796287;29;20054;-85
2022/11/10 01:33:45;;;;;;;12.25;2.42;;;11.60;99.90;;;;;;4810284;29;20046;-84
2022/11/10 01:36:11;;;;;;;12.40;2.30;;;11.60;99.90;;;;;;4811409;29;20402;-84
2022/11/10 01:38:44;;;;;;;13.00;2.17;;;11.60;99.90;;;;;;4807098;29;20125;-85
2022/11/10 01:41:12;;;;;;;10.90;2.15;;;11.70;99.90;;;;;;4810118;29;20050;-84
2022/11/10 01:43:38;;;;;;;12.98;2.35;;;11.50;99.90;;;;;;4795467;29;20143;-85
2022/11/10 01:46:08;;;;;;;10.48;2.00;;;11.50;99.90;;;;;;4781564;29;20058;-85
2022/11/10 01:48:52;;;;;;;9.80;2.00;;;11.40;99.90;;;;;;4794291;29;20054;-84
2022/11/10 01:51:25;;;;;;;11.95;2.30;;;10.30;99.90;;;;;;4810822;29;20111;-85
2022/11/10 01:53:58;;;;;;;9.60;1.70;;;12.60;99.90;;;;;;4810284;29;20065;-84
2022/11/10 01:56:27;;;;;;;8.23;1.88;;;11.40;99.90;;;;;;4811013;29;20476;-85
2022/11/10 01:59:13;;;;;;;12.27;2.22;;;11.30;99.90;;;;;;4807276;29;20050;-85
2022/11/10 02:01:40;;;;;;;7.45;1.60;;;11.30;99.90;;;;;;4797323;29;20515;-84
2022/11/10 02:04:10;;;;;;;9.45;1.80;;;11.40;99.90;;;;;;4812166;29;20239;-85
2022/11/10 02:06:42;;;;;;;10.27;2.10;;;11.30;99.90;;;;;;4797929;29;20050;-84
2022/11/10 02:09:08;;;;;;;10.00;1.95;;;11.30;99.90;;;;;;4807777;29;20054;-85
2022/11/10 02:11:36;;;;;;;11.77;1.95;;;11.40;99.90;;;;;;4794930;29;20327;-86
2022/11/10 02:14:04;;;;;;;9.60;2.00;;;11.30;99.90;;;;;;4810544;29;20103;-85
2022/11/10 02:16:30;;;;;;;8.32;2.10;;;11.40;99.90;;;;;;4784603;29;20066;-84
2022/11/10 02:19:14;;;;;;;9.02;2.08;;;11.30;99.90;;;;;;4805884;29;20175;-85
2022/11/10 02:21:40;;;;;;;13.45;2.38;;;11.30;99.90;;;;;;4795137;29;20062;-85
2022/11/10 02:24:07;;;;;;;9.35;2.42;;;10.50;99.90;;;;;;4794709;29;20042;-84
2022/11/10 02:26:35;;;;;;;12.05;2.42;;;11.30;99.90;;;;;;4796339;29;20053;-85
2022/11/10 02:29:01;;;;;;;9.68;1.90;;;11.30;99.90;;;;;;4793057;29;20058;-84
2022/11/10 02:31:28;;;;;;;14.32;1.77;;;11.30;99.90;;;;;;4794927;29;20556;-84
2022/11/10 02:33:54;;;;;;;9.40;2.13;;;11.30;99.90;;;;;;4794586;29;20062;-84
2022/11/10 02:36:20;;;;;;;8.15;1.65;;;11.30;99.90;;;;;;4796114;29;20095;-84
2022/11/10 02:38:46;;;;;;;13.98;2.55;;;11.30;99.90;;;;;;4793493;29;20553;-84
2022/11/10 02:41:11;;;;;;;13.95;3.33;;;10.30;99.90;;;;;;4807110;29;20046;-85
2022/11/10 02:43:38;;;;;;;10.70;2.17;;;11.30;99.90;;;;;;4792316;29;20214;-86
2022/11/10 02:46:04;;;;;;;14.00;2.17;;;10.00;99.90;;;;;;4811990;29;20570;-85
2022/11/10 02:48:30;;;;;;;13.10;1.95;;;11.30;99.90;;;;;;4806382;29;20061;-85
2022/11/10 02:50:55;;;;;;;12.63;2.30;;;11.40;99.90;;;;;;4807906;29;20062;-86
2022/11/10 02:53:21;;;;;;;7.03;2.15;;;11.30;99.90;;;;;;4810145;29;20058;-85
2022/11/10 02:55:47;;;;;;;10.00;2.20;;;11.30;99.90;;;;;;4794749;29;20055;-85
2022/11/10 02:58:13;;;;;;;12.65;2.47;;;11.30;99.90;;;;;;4794768;29;20058;-85
2022/11/10 03:00:39;;;;;;;10.93;2.13;;;11.20;99.90;;;;;;4781239;29;20046;-85
2022/11/10 03:03:07;;;;;;;13.05;2.53;;;11.20;99.90;;;;;;4796021;29;20117;-85
2022/11/10 03:05:32;;;;;;;12.18;2.47;;;11.30;99.90;;;;;;4794542;29;20493;-84
2022/11/10 03:08:01;;;;;;;12.38;2.53;;;11.30;99.90;;;;;;4796388;29;20065;-85
2022/11/10 03:10:27;;;;;;;22.00;2.63;;;11.20;99.90;;;;;;4779508;29;20119;-84
2022/11/10 03:12:59;;;;;;;11.27;2.03;;;11.30;99.90;;;;;;4811447;29;20054;-84
2022/11/10 03:15:25;;;;;;;9.73;2.25;;;11.30;99.90;;;;;;4809318;29;20099;-86
2022/11/10 03:17:51;;;;;;;12.27;2.35;;;11.30;99.90;;;;;;4795121;29;20141;-84
2022/11/10 03:20:18;;;;;;;10.35;1.95;;;11.30;99.90;;;;;;4807732;29;20069;-84
2022/11/10 03:22:44;;;;;;;11.40;2.38;;;11.30;99.90;;;;;;4795544;29;20145;-85
2022/11/10 03:25:11;;;;;;;20.77;2.53;;;11.40;99.90;;;;;;4793354;29;21608;-86
2022/11/10 03:27:37;;;;;;;14.13;2.47;;;11.30;99.90;;;;;;4807870;29;20057;-85
2022/11/10 03:30:05;;;;;;;11.10;2.40;;;11.30;99.90;;;;;;4790015;29;20516;-85
2022/11/10 03:32:31;;;;;;;15.30;1.98;;;11.30;99.90;;;;;;4810126;29;20098;-85
2022/11/10 03:34:57;;;;;;;16.08;3.45;;;11.30;99.90;;;;;;4791570;29;20069;-84
2022/11/10 03:37:23;;;;;;;9.43;2.15;;;11.30;99.90;;;;;;4793394;29;20058;-84
2022/11/10 03:39:49;;;;;;;11.10;2.20;;;11.20;99.90;;;;;;4806569;29;20055;-85
2022/11/10 03:42:14;;;;;;;16.50;2.63;;;11.30;99.90;;;;;;4805843;29;20865;-85
2022/11/10 03:44:40;;;;;;;10.00;2.42;;;11.30;99.90;;;;;;4780389;29;20488;-84
2022/11/10 03:47:06;;;;;;;10.40;2.10;;;11.40;99.90;;;;;;4805582;29;20066;-85
2022/11/10 03:49:32;;;;;;;10.23;2.90;;;11.30;99.90;;;;;;4794017;29;20379;-85
2022/11/10 03:51:57;;;;;;;11.50;2.85;;;11.30;99.90;;;;;;4780655;29;20050;-85
2022/11/10 03:54:23;;;;;;;8.77;2.45;;;11.40;99.90;;;;;;4786111;29;20087;-84
2022/11/10 03:56:49;;;;;;;10.52;2.03;;;11.30;99.90;;;;;;4779650;29;20544;-84
2022/11/10 03:59:14;;;;;;;10.25;2.33;;;11.30;99.90;;;;;;4794694;29;20497;-85
2022/11/10 04:01:40;;;;;;;10.07;2.30;;;11.40;99.90;;;;;;4808807;29;20054;-85
2022/11/10 04:08:57;;;;;;;11.95;2.20;;;11.40;99.90;;;;;;4794431;29;20065;-84
2022/11/10 04:09:39;;;;;;;9.35;2.00;;;11.40;99.90;;;;;;4797036;29;20078;-84
2022/11/10 04:17:33;;;;;;;10.38;2.17;;;11.40;99.90;;;;;;4797177;29;20076;-84
2022/11/10 04:20:01;;;;;;;14.05;2.38;;;11.40;99.90;;;;;;4776737;29;20505;-84
2022/11/10 04:25:11;;;;;;;15.40;3.05;;;11.40;99.90;;;;;;4795664;29;20062;-84
2022/11/10 04:27:38;;;;;;;12.07;2.40;;;11.40;99.90;;;;;;4779167;29;20080;-84
2022/11/10 04:30:04;;;;;;;14.05;2.28;;;11.40;99.90;;;;;;4791467;29;20055;-84
2022/11/10 04:32:30;;;;;;;15.18;2.20;;;11.40;99.90;;;;;;4795495;29;20488;-84
2022/11/10 04:34:56;;;;;;;11.15;2.53;;;11.40;99.90;;;;;;4821300;29;20146;-84
2022/11/10 04:37:22;;;;;;;10.45;2.15;;;11.40;99.90;;;;;;4793870;29;20682;-84
2022/11/10 04:39:47;;;;;;;9.13;2.20;;;11.40;99.90;;;;;;4764715;29;20046;-83
2022/11/10 04:42:13;;;;;;;11.25;2.10;;;11.40;99.90;;;;;;4793276;29;20718;-84
2022/11/10 04:44:39;;;;;;;11.88;3.13;;;11.40;99.90;;;;;;4779690;29;20061;-84
2022/11/10 04:47:04;;;;;;;11.50;2.35;;;11.40;99.90;;;;;;4809046;29;20046;-84
2022/11/10 04:49:30;;;;;;;12.15;2.90;;;11.40;99.90;;;;;;4791383;29;20591;-85
2022/11/10 04:51:58;;;;;;;14.00;2.92;;;11.40;99.90;;;;;;4792477;29;20069;-84
2022/11/10 04:54:24;;;;;;;14.45;2.38;;;11.40;99.90;;;;;;4793029;29;20081;-84
2022/11/10 04:56:50;;;;;;;14.15;2.45;;;11.40;99.90;;;;;;4793617;29;20093;-84
2022/11/10 04:59:16;;;;;;;11.07;2.15;;;11.40;99.90;;;;;;4776106;29;20145;-86
2022/11/10 05:01:42;;;;;;;15.32;2.33;;;11.40;99.90;;;;;;4806900;29;20151;-86
2022/11/10 05:04:07;;;;;;;14.55;3.22;;;11.40;99.90;;;;;;4796534;29;20492;-84
2022/11/10 05:06:33;;;;;;;13.38;2.55;;;11.40;99.90;;;;;;4797381;29;20034;-85
2022/11/10 05:08:59;;;;;;;15.52;2.92;;;11.40;99.90;;;;;;4797608;29;20075;-84
2022/11/10 05:11:26;;;;;;;13.85;2.67;;;11.40;99.90;;;;;;4801030;29;20054;-84
2022/11/10 05:13:52;;;;;;;11.43;2.28;;;11.40;99.90;;;;;;4783776;29;20189;-84
2022/11/10 05:16:18;;;;;;;11.23;2.53;;;11.30;99.90;;;;;;4793118;29;20276;-85
2022/11/10 05:18:44;;;;;;;10.52;2.80;;;11.40;99.90;;;;;;4796636;29;20104;-84
2022/11/10 05:21:13;;;;;;;14.38;2.20;;;11.40;99.90;;;;;;4799684;29;20053;-84
2022/11/10 05:23:39;;;;;;;10.35;2.22;;;11.40;99.90;;;;;;4801351;29;20038;-85
2022/11/10 05:26:15;;;;;;;13.10;2.28;;;11.40;99.90;;;;;;4796971;29;20663;-85
2022/11/10 05:28:42;;;;;;;11.27;2.15;;;12.10;99.90;;;;;;4813389;29;20053;-84
2022/11/10 05:31:08;;;;;;;16.40;2.28;;;11.30;99.90;;;;;;4798699;29;20148;-84
2022/11/10 05:33:38;;;;;;;18.02;3.00;;;11.30;99.90;;;;;;4798726;29;20515;-84
2022/11/10 05:36:05;;;;;;;17.05;2.80;;;11.30;99.90;;;;;;4798411;29;20392;-86
2022/11/10 05:38:31;;;;;;;10.57;2.70;;;11.30;99.90;;;;;;4798185;29;20547;-85
2022/11/10 05:40:57;;;;;;;17.38;2.58;;;11.20;99.90;;;;;;4815684;29;20060;-85
2022/11/10 05:43:26;;;;;;;14.23;2.65;;;11.20;99.90;;;;;;4798160;29;20377;-83
2022/11/10 05:45:52;;;;;;;12.88;2.72;;;11.30;99.90;;;;;;4784601;29;20536;-84
2022/11/10 05:48:17;;;;;;;11.27;2.58;;;11.40;99.90;;;;;;4798514;29;20046;-85
2022/11/10 05:50:44;;;;;;;10.77;2.42;;;11.30;99.90;;;;;;4799238;29;20138;-84
2022/11/10 05:53:10;;;;;;;15.60;3.80;;;11.20;99.90;;;;;;4812495;29;20500;-84
2022/11/10 05:55:36;;;;;;;12.02;2.45;;;11.20;99.90;;;;;;4797526;29;20050;-84
2022/11/10 05:58:01;;;;;;;12.85;2.35;;;11.20;99.90;;;;;;4799727;29;20050;-84
2022/11/10 06:00:29;;;;;;;11.63;2.90;;;11.10;99.90;;;;;;4784740;29;20065;-84
2022/11/10 06:03:00;;;;;;;10.23;2.15;;;11.20;99.90;;;;;;4797696;29;20050;-84
2022/11/10 06:05:26;;;;;;;10.32;2.15;;;11.10;99.90;;;;;;4797248;29;20114;-85
2022/11/10 06:07:52;;;;;;;12.93;2.40;;;11.10;99.90;;;;;;4811425;29;20046;-84
2022/11/10 06:10:20;;;;;;;13.40;3.30;;;11.00;99.90;;;;;;4814214;29;20060;-85
2022/11/10 06:12:46;;;;;;;12.88;2.72;;;11.00;99.90;;;;;;4812989;29;20068;-84
2022/11/10 06:15:14;;;;;;;12.95;2.50;;;11.10;99.90;;;;;;4811450;29;20057;-85
2022/11/10 06:17:40;;;;;;;10.40;2.30;;;11.20;99.90;;;;;;4812300;29;20053;-84
2022/11/10 06:20:06;;;;;;;18.98;2.63;;;11.20;99.90;;;;;;4796921;29;20141;-83
2022/11/10 06:22:32;;;;;;;12.85;2.63;;;11.20;99.90;;;;;;4794774;29;20064;-84
2022/11/10 06:24:58;;;;;;;25.20;3.58;;;11.30;99.90;;;;;;4812285;29;20102;-83
2022/11/10 06:27:24;;;;;;;15.07;2.50;;;11.40;99.90;;;;;;4808738;29;20057;-84
2022/11/10 06:29:50;;;;;;;15.15;2.85;;;11.50;99.90;;;;;;4797215;29;20093;-83
2022/11/10 06:32:15;;;;;;;16.40;2.85;;;11.50;99.90;;;;;;4796563;29;20050;-83
2022/11/10 06:34:41;;;;;;;11.00;2.40;;;11.60;99.90;;;;;;4812872;29;20054;-83
2022/11/10 06:37:07;;;;;;;18.00;3.03;;;10.90;99.90;;;;;;4813110;29;20080;-85
2022/11/10 06:39:33;;;;;;;17.02;2.75;;;11.60;99.90;;;;;;4797700;29;20057;-84
2022/11/10 06:41:59;;;;;;;19.63;2.88;;;11.60;99.90;;;;;;4827198;29;20146;-82
2022/11/10 06:44:24;;;;;;;14.25;3.20;;;11.60;99.90;;;;;;4784453;29;20056;-85
2022/11/10 06:46:51;;;;;;;14.98;2.47;;;11.70;99.90;;;;;;4799426;29;20585;-83
2022/11/10 06:49:17;;;;;;;12.82;2.70;;;11.70;99.90;;;;;;4795123;29;20147;-84
2022/11/10 06:51:43;;;;;;;11.07;2.03;;;11.80;99.90;;;;;;4798594;29;20046;-84
2022/11/10 06:54:09;;;;;;;14.25;2.38;;;11.70;99.90;;;;;;4803473;29;20089;-86
2022/11/10 06:56:35;;;;;;;17.20;3.10;;;11.60;99.90;;;;;;4802165;29;20084;-85
2022/11/10 06:59:01;;;;;;;15.05;2.92;;;11.70;99.90;;;;;;4799811;29;20423;-85
2022/11/10 07:01:27;;;;;;;9.88;2.20;;;11.70;99.90;;;;;;4783021;29;20237;-84
2022/11/10 07:03:53;;;;;;;9.32;2.38;;;11.60;99.90;;;;;;4797707;29;20062;-84
2022/11/10 07:06:19;;;;;;;16.75;3.08;;;10.50;99.90;;;;;;4797835;29;20081;-86
2022/11/10 07:08:46;;;;;;;12.52;2.28;;;11.40;99.90;;;;;;4813057;29;20045;-85
2022/11/10 07:11:14;;;;;;;14.02;2.75;;;11.40;99.90;;;;;;4798657;29;20050;-86
2022/11/10 07:13:40;;;;;;;12.98;2.53;;;11.30;99.90;;;;;;4812188;29;20188;-85
2022/11/10 07:16:07;;;;;;;10.77;2.25;;;11.30;99.90;;;;;;4795750;29;21234;-84
2022/11/10 07:18:34;;;;;;;15.95;2.58;;;11.30;99.90;;;;;;4805176;29;20089;-83
2022/11/10 07:21:06;;;;;;;13.90;2.38;;;11.30;99.90;;;;;;4798243;29;20572;-87
2022/11/10 07:23:33;;;;;;;13.52;2.72;;;10.30;99.90;;;;;;4797721;29;20041;-84
2022/11/10 07:26:00;;;;;;;11.38;2.28;;;11.30;99.90;;;;;;4811507;29;20046;-84
2022/11/10 07:28:25;;;;;;;16.00;3.03;;;11.30;99.90;;;;;;4809775;29;20061;-84
2022/11/10 07:30:51;;;;;;;15.27;2.22;;;11.30;99.90;;;;;;4811134;29;20054;-83
2022/11/10 07:33:17;;;;;;;15.68;2.75;;;11.30;99.90;;;;;;4794159;29;20088;-83
2022/11/10 07:35:49;;;;;;;11.80;2.78;;;11.40;99.90;;;;;;4809710;29;20054;-83
2022/11/10 07:38:15;;;;;;;10.75;2.35;;;11.40;99.90;;;;;;4798807;29;21325;-85
2022/11/10 07:40:40;;;;;;;16.52;2.72;;;11.40;99.90;;;;;;4795427;29;20613;-83
2022/11/10 07:43:06;;;;;;;17.48;2.53;;;12.10;99.90;;;;;;4783158;29;20091;-83
2022/11/10 07:45:32;;;;;;;19.27;4.15;;;11.50;99.90;;;;;;4798328;29;21228;-82
2022/11/10 07:48:03;;;;;;;13.98;2.50;;;11.60;99.90;;;;;;4823685;29;20757;-83
2022/11/10 07:50:29;;;;;;;21.13;2.67;;;11.60;99.90;;;;;;4812098;29;20782;-84
2022/11/10 07:53:06;;;;;;;12.98;2.92;;;11.70;99.90;;;;;;4796872;29;20092;-84
2022/11/10 07:55:42;;;;;;;13.43;2.97;;;11.80;99.90;;;;;;4816957;29;20624;-85
2022/11/10 07:58:09;;;;;;;19.20;2.85;;;11.90;99.90;;;;;;4820229;29;20578;-84
2022/11/10 08:00:36;;;;;;;13.02;2.95;;;12.00;99.90;;;;;;4814874;29;20064;-83
2022/11/10 08:03:14;;;;;;;17.95;2.72;;;12.00;99.90;;;;;;4799901;29;20106;-84
2022/11/10 08:05:40;;;;;;;16.85;3.38;;;12.10;99.90;;;;;;4810729;29;20057;-85
2022/11/10 08:08:07;;;;;;;17.48;2.10;;;12.10;99.90;;;;;;4788942;29;20085;-84
2022/11/10 08:10:34;;;;;;;17.10;2.88;;;12.10;99.90;;;;;;4798919;29;20408;-82
2022/11/10 08:13:01;;;;;;;12.60;2.42;;;12.10;99.90;;;;;;4816054;29;20057;-82
2022/11/10 08:15:28;;;;;;;13.88;2.80;;;12.20;99.90;;;;;;4812146;29;20386;-81
2022/11/10 08:18:12;;;;;;;13.93;2.58;;;12.20;99.90;;;;;;4799819;29;20463;-82
2022/11/10 08:20:38;;;;;;;12.00;2.55;;;12.20;99.90;;;;;;4812051;29;20704;-82
2022/11/10 08:23:05;;;;;;;17.08;3.00;;;12.20;99.90;;;;;;4818467;29;20286;-82
2022/11/10 08:25:34;;;;;;;16.60;2.72;;;12.30;99.90;;;;;;4816176;29;20110;-83
2022/11/10 08:28:02;;;;;;;15.95;2.90;;;12.30;99.90;;;;;;4810548;29;20050;-82
2022/11/10 08:30:28;;;;;;;21.90;3.70;;;12.40;99.90;;;;;;4798034;29;20056;-83
2022/11/10 08:32:56;;;;;;;16.33;3.50;;;12.50;99.90;;;;;;4797883;29;20704;-84
2022/11/10 08:35:24;;;;;;;17.77;2.85;;;12.60;99.90;;;;;;4826139;29;20051;-82
2022/11/10 08:37:49;;;;;;;13.48;2.58;;;12.70;99.90;;;;;;4800473;29;20133;-83
2022/11/10 08:40:17;;;;;;;19.00;2.97;;;12.70;99.90;;;;;;4787186;29;20094;-83
2022/11/10 08:42:43;;;;;;;16.35;2.85;;;12.80;99.90;;;;;;4805610;29;20495;-83
2022/11/10 08:45:09;;;;;;;11.45;2.53;;;12.80;99.90;;;;;;4804746;29;20133;-84
2022/11/10 08:47:34;;;;;;;10.52;2.60;;;12.80;99.90;;;;;;4805208;29;20548;-84
2022/11/10 08:50:00;;;;;;;15.77;2.55;;;12.80;99.90;;;;;;4800950;29;20054;-83
2022/11/10 08:52:26;;;;;;;12.13;2.17;;;12.90;99.90;;;;;;4816950;29;20085;-83
2022/11/10 08:54:51;;;;;;;14.07;2.53;;;12.90;99.90;;;;;;4771091;29;20050;-82
2022/11/10 08:57:17;;;;;;;14.10;2.90;;;12.90;99.90;;;;;;4801156;29;20096;-82
2022/11/10 08:59:43;;;;;;;15.27;2.65;;;12.90;99.90;;;;;;4801427;29;20046;-83
2022/11/10 09:02:09;;;;;;;11.88;3.03;;;12.90;99.90;;;;;;4813157;29;20060;-83
2022/11/10 09:04:35;;;;;;;16.85;3.50;;;12.90;99.90;;;;;;4800551;29;20054;-85
2022/11/10 09:07:00;;;;;;;15.27;3.05;;;12.90;99.90;;;;;;4802087;29;20681;-84
2022/11/10 09:09:31;;;;;;;18.42;3.25;;;12.90;99.90;;;;;;4790541;29;20060;-85
2022/11/10 09:12:00;;;;;;;19.70;3.22;;;13.00;99.90;;;;;;4800532;29;21261;-85
2022/11/10 09:14:26;;;;;;;11.65;2.53;;;13.10;99.90;;;;;;4817910;29;20049;-83
2022/11/10 09:16:51;;;;;;;12.73;2.55;;;13.30;99.90;;;;;;4802747;29;20069;-85
2022/11/10 09:19:17;;;;;;;13.45;2.88;;;13.40;99.90;;;;;;4836596;29;20050;-83
2022/11/10 09:21:43;;;;;;;10.80;2.65;;;13.40;99.90;;;;;;4816314;29;20390;-87
2022/11/10 09:24:09;;;;;;;18.52;2.72;;;13.40;99.90;;;;;;4803134;29;20396;-84
2022/11/10 09:26:34;;;;;;;11.55;2.97;;;13.50;99.90;;;;;;4801446;29;20050;-83
2022/11/10 09:29:00;;;;;;;15.30;2.55;;;13.90;99.90;;;;;;4795006;29;20112;-83
2022/11/10 09:31:26;;;;;;;13.73;2.75;;;13.40;99.90;;;;;;4802948;29;20050;-82
2022/11/10 09:33:52;;;;;;;17.50;3.58;;;13.40;99.90;;;;;;4816703;29;20068;-82
2022/11/10 09:36:17;;;;;;;13.35;3.20;;;13.10;99.90;;;;;;4817864;29;20058;-83
2022/11/10 09:38:43;;;;;;;14.25;2.90;;;13.10;99.90;;;;;;4798998;29;20525;-83
2022/11/10 09:41:12;;;;;;;14.68;2.55;;;13.30;99.90;;;;;;4817931;29;20136;-82
2022/11/10 09:43:51;;;;;;;16.85;3.38;;;13.30;99.90;;;;;;4816951;29;20980;-83
2022/11/10 09:46:30;;;;;;;13.43;2.78;;;13.30;99.90;;;;;;4815598;29;20125;-83
2022/11/10 09:49:08;;;;;;;18.55;2.88;;;13.30;99.90;;;;;;4801061;29;20065;-83
2022/11/10 09:51:40;;;;;;;14.32;2.20;;;13.30;99.90;;;;;;4817798;29;20045;-82
2022/11/10 09:54:22;;;;;;;12.02;2.30;;;13.30;99.90;;;;;;4818514;29;20058;-83
2022/11/10 09:56:50;;;;;;;15.50;2.65;;;13.40;99.90;;;;;;4816018;29;20169;-83
2022/11/10 09:59:23;;;;;;;14.40;2.95;;;13.50;99.90;;;;;;4786999;29;20046;-83
2022/11/10 10:02:01;;;;;;;18.23;3.38;;;13.50;99.90;;;;;;4818353;29;20058;-82
2022/11/10 10:04:57;;;;;;;16.67;2.85;;;13.50;99.90;;;;;;4816787;29;20060;-83
2022/11/10 10:08:06;;;;;;;13.02;2.50;;;13.50;99.90;;;;;;4814069;29;20054;-83
2022/11/10 10:10:46;;;;;;;20.33;3.40;;;13.50;99.90;;;;;;4800995;29;20053;-83
2022/11/10 10:13:49;;;;;;;18.15;3.20;;;13.50;99.90;;;;;;4817567;29;20054;-83
2022/11/10 10:16:43;;;;;;;11.70;2.55;;;13.50;99.90;;;;;;4815424;29;20065;-83
2022/11/10 10:20:03;;;;;;;14.40;2.67;;;13.40;99.90;;;;;;4799589;29;20068;-82
2022/11/10 10:22:50;;;;;;;11.48;2.85;;;13.50;99.90;;;;;;4745238;30;20070;-83
2022/11/10 10:25:22;;;;;;;16.45;2.95;;;13.50;99.90;;;;;;4814918;29;20073;-84
2022/11/10 10:28:16;;;;;;;12.75;2.47;;;13.50;99.90;;;;;;4814765;29;20056;-83
2022/11/10 10:30:43;;;;;;;16.88;4.00;;;13.50;99.90;;;;;;4814166;29;20061;-83
2022/11/10 10:33:18;;;;;;;17.50;3.38;;;13.50;99.90;;;;;;4815227;29;20058;-83
2022/11/10 10:35:46;;;;;;;;;;;13.50;99.90;;;;;;4817386;29;20497;-84
2022/11/10 10:38:28;;;;;;;18.92;3.15;;;13.50;99.90;;;;;;4815718;29;20023;-82
2022/11/10 10:40:59;;;;;;;16.10;2.60;;;13.50;99.90;;;;;;4816782;29;20057;-82
2022/11/10 10:43:25;;;;;;;14.57;2.17;;;13.50;99.90;;;;;;4801906;29;20091;-83
2022/11/10 10:46:25;;;;;;;18.23;2.70;;;13.50;99.90;;;;;;4786961;29;20523;-84
2022/11/10 10:49:19;;;;;;;17.10;2.85;;;13.50;99.90;;;;;;4799380;29;20092;-83
2022/11/10 10:51:45;;;;;;;18.05;2.60;;;13.50;99.90;;;;;;4813960;29;20446;-82
2022/11/10 10:54:38;;;;;;;15.10;2.67;;;13.50;99.90;;;;;;4801362;29;20089;-82
2022/11/10 10:57:20;;;;;;;16.75;2.65;;;13.50;99.90;;;;;;4815074;29;20101;-82
2022/11/10 10:59:46;;;;;;;14.38;2.97;;;13.50;99.90;;;;;;4814475;29;20061;-82
2022/11/10 11:02:25;;;;;;;12.70;2.72;;;13.50;99.90;;;;;;4801507;29;20057;-84
2022/11/10 11:05:11;;;;;;;17.13;2.72;;;14.40;99.90;;;;;;4812947;29;20102;-83
2022/11/10 11:07:37;;;;;;;17.40;2.78;;;13.50;99.90;;;;;;4814009;29;20066;-84
2022/11/10 11:10:19;;;;;;;14.13;2.75;;;13.50;99.90;;;;;;4788691;29;20197;-83
2022/11/10 11:12:45;;;;;;;12.68;2.95;;;13.50;99.90;;;;;;4812545;29;20050;-84
2022/11/10 11:15:29;;;;;;;13.55;2.72;;;13.40;99.90;;;;;;4797761;29;20057;-83
2022/11/10 11:18:09;;;;;;;12.82;2.50;;;13.50;99.90;;;;;;4812698;29;20050;-83
2022/11/10 11:20:57;;;;;;;16.38;3.20;;;13.50;99.90;;;;;;4812629;29;20062;-82
2022/11/10 11:23:50;;;;;;;13.70;2.55;;;13.50;99.90;;;;;;4809899;29;20090;-82
2022/11/10 11:26:31;;;;;;;14.25;2.97;;;13.40;99.90;;;;;;4812194;29;20137;-84
2022/11/10 11:29:41;;;;;;;15.52;3.55;;;13.40;99.90;;;;;;4794718;29;20065;-83
2022/11/10 11:32:15;;;;;;;14.43;3.05;;;13.40;99.90;;;;;;4727826;29;20119;-83
2022/11/10 11:34:59;;;;;;;14.90;3.17;;;13.40;99.90;;;;;;4807250;29;20045;-82
2022/11/10 11:37:44;;;;;;;17.40;3.63;;;13.40;99.90;;;;;;4812772;29;20058;-82
2022/11/10 11:40:25;;;;;;;18.23;3.10;;;13.40;99.90;;;;;;4810291;29;20060;-82
2022/11/10 11:42:57;;;;;;;20.33;4.05;;;13.40;99.90;;;;;;4793213;29;20064;-82
2022/11/10 11:45:29;;;;;;;19.48;3.15;;;13.40;99.90;;;;;;4811010;29;20057;-82
2022/11/10 11:48:27;;;;;;;20.65;3.72;;;13.40;99.90;;;;;;4795788;29;20061;-81
2022/11/10 11:51:20;;;;;;;14.00;2.63;;;13.50;99.90;;;;;;4777754;29;20061;-82
2022/11/10 11:53:54;;;;;;;19.92;3.35;;;13.50;99.90;;;;;;4810026;29;20054;-80
2022/11/10 11:56:30;;;;;;;15.60;3.58;;;13.50;99.90;;;;;;4811929;29;20054;-82
2022/11/10 11:59:14;;;;;;;;;;;13.60;99.90;;;;;;4794295;29;20496;-82
2022/11/10 12:01:56;;;;;;;20.63;3.85;;;13.50;99.90;;;;;;4796066;29;19961;-82
2022/11/10 12:04:39;;;;;;;16.40;3.50;;;13.60;99.90;;;;;;4797654;29;20117;-83
2022/11/10 12:07:16;;;;;;;20.42;3.53;;;13.70;99.90;;;;;;4814026;29;20046;-81
2022/11/10 12:09:48;;;;;;;17.48;3.47;;;13.70;99.90;;;;;;4812618;29;20050;-82
2022/11/10 12:12:29;;;;;;;17.98;4.30;;;13.60;99.90;;;;;;4813931;29;20149;-82
2022/11/10 12:15:03;;;;;;;21.13;3.75;;;13.50;99.90;;;;;;4800024;29;20054;-81
2022/11/10 12:17:59;;;;;;;18.10;4.20;;;13.60;99.90;;;;;;4814527;29;20061;-82
2022/11/10 12:20:31;;;;;;;14.57;3.00;;;13.50;99.90;;;;;;4797941;29;20444;-81
2022/11/10 12:23:12;;;;;;;15.68;2.95;;;13.50;99.90;;;;;;4796268;29;20477;-82
2022/11/10 12:25:59;;;;;;;17.95;3.25;;;13.40;99.90;;;;;;4807882;29;20523;-82
2022/11/10 12:28:31;;;;;;;16.27;3.00;;;13.40;99.90;;;;;;4800129;29;20917;-81
2022/11/10 12:31:01;;;;;;;14.13;2.85;;;13.40;99.90;;;;;;4798882;29;20069;-80
2022/11/10 12:33:48;;;;;;;14.50;3.15;;;13.40;99.90;;;;;;4798746;29;20062;-81
2022/11/10 12:36:17;;;;;;;14.07;2.83;;;13.40;99.90;;;;;;4798693;29;20085;-82
2022/11/10 12:39:04;;;;;;;14.48;3.78;;;13.30;99.90;;;;;;4815612;29;20102;-81
2022/11/10 12:41:45;;;;;;;12.52;3.33;;;13.30;99.90;;;;;;4798145;29;20064;-81
2022/11/10 12:44:35;;;;;;;23.35;3.28;;;13.40;99.90;;;;;;4813277;29;20058;-81
2022/11/10 12:47:05;;;;;;;11.10;2.47;;;13.30;99.90;;;;;;4799518;29;20542;-80
2022/11/10 12:49:36;;;;;;;19.92;3.20;;;13.40;99.90;;;;;;4810991;29;20046;-82
2022/11/10 12:52:16;;;;;;;12.10;2.38;;;13.40;99.90;;;;;;4816757;29;20610;-81
2022/11/10 12:54:44;;;;;;;15.20;2.90;;;13.40;99.90;;;;;;4816554;29;20081;-82
2022/11/10 12:57:23;;;;;;;18.65;3.63;;;13.50;99.90;;;;;;4813024;29;20118;-83
2022/11/10 12:59:52;;;;;;;20.52;3.50;;;13.50;99.90;;;;;;4797048;29;20065;-83
2022/11/10 13:02:43;;;;;;;11.75;2.80;;;13.60;99.90;;;;;;4804753;29;20058;-81
2022/11/10 13:05:44;;;;;;;19.15;3.60;;;13.60;99.90;;;;;;4816858;29;20050;-81
2022/11/10 13:08:19;;;;;;;16.65;3.08;;;13.60;99.90;;;;;;4796615;29;20050;-82